sensor_id;sensor_type;location;lat;lon;timestamp;temperature;humidity
36186;DHT22;22228;53.222;7.446;2023-03-31T00:00:59;10.50;99.90
36186;DHT22;22228;53.222;7.446;2023-03-31T00:03:23;10.50;99.90
36186;DHT22;22228;53.222;7.446;2023-03-31T00:05:53;10.50;99.90
36186;DHT22;22228;53.222;7.446;2023-03-31T00:08:14;10.50;99.90
36186;DHT22;22228;53.222;7.446;2023-03-31T00:10:36;10.50;99.90
36186;DHT22;22228;53.222;7.446;2023-03-31T00:13:12;10.40;99.90
36186;DHT22;22228;53.222;7.446;2023-03-31T03:01:18;9.00;99.90
36186;DHT22;22228;53.222;7.446;2023-03-31T03:03:45;9.00;99.90
36186;DHT22;22228;53.222;7.446;2023-03-31T03:06:19;9.00;99.90
36186;DHT22;22228;53.222;7.446;2023-03-31T03:09:05;9.00;99.90
36186;DHT22;22228;53.222;7.446;2023-03-31T03:11:37;9.10;99.90
36186;DHT22;22228;53.222;7.446;2023-03-31T03:14:14;9.10;99.90
36186;DHT22;22228;53.222;7.446;2023-03-31T03:16:36;9.10;99.90
36186;DHT22;22228;53.222;7.446;2023-03-31T03:19:05;9.10;99.90
36186;DHT22;22228;53.222;7.446;2023-03-31T03:24:43;9.10;99.90
36186;DHT22;22228;53.222;7.446;2023-03-31T03:27:04;9.10;99.90
36186;DHT22;22228;53.222;7.446;2023-03-31T03:29:25;9.10;99.90
36186;DHT22;22228;53.222;7.446;2023-03-31T03:31:51;9.00;99.90
36186;DHT22;22228;53.222;7.446;2023-03-31T03:34:11;9.00;99.90
36186;DHT22;22228;53.222;7.446;2023-03-31T03:36:32;9.00;99.90
36186;DHT22;22228;53.222;7.446;2023-03-31T03:39:24;8.90;99.90
36186;DHT22;22228;53.222;7.446;2023-03-31T03:42:12;8.90;99.90
36186;DHT22;22228;53.222;7.446;2023-03-31T03:44:32;8.90;99.90
36186;DHT22;22228;53.222;7.446;2023-03-31T03:47:20;8.90;99.90
36186;DHT22;22228;53.222;7.446;2023-03-31T03:49:41;8.90;99.90
36186;DHT22;22228;53.222;7.446;2023-03-31T03:52:01;8.90;99.90
36186;DHT22;22228;53.222;7.446;2023-03-31T03:54:47;8.90;99.90
36186;DHT22;22228;53.222;7.446;2023-03-31T03:57:08;8.90;99.90
36186;DHT22;22228;53.222;7.446;2023-03-31T03:59:35;8.90;99.90
36186;DHT22;22228;53.222;7.446;2023-03-31T04:02:02;8.90;99.90
36186;DHT22;22228;53.222;7.446;2023-03-31T04:04:24;8.90;99.90
36186;DHT22;22228;53.222;7.446;2023-03-31T04:06:47;8.80;99.90
36186;DHT22;22228;53.222;7.446;2023-03-31T04:09:08;8.80;99.90
36186;DHT22;22228;53.222;7.446;2023-03-31T04:11:54;8.80;99.90
36186;DHT22;22228;53.222;7.446;2023-03-31T04:14:15;8.70;99.90
36186;DHT22;22228;53.222;7.446;2023-03-31T04:17:03;8.80;99.90
36186;DHT22;22228;53.222;7.446;2023-03-31T04:19:26;8.70;99.90
36186;DHT22;22228;53.222;7.446;2023-03-31T04:21:53;8.70;99.90
36186;DHT22;22228;53.222;7.446;2023-03-31T04:24:22;8.70;99.90
36186;DHT22;22228;53.222;7.446;2023-03-31T04:26:53;8.70;99.90
36186;DHT22;22228;53.222;7.446;2023-03-31T04:29:16;8.80;99.90
36186;DHT22;22228;53.222;7.446;2023-03-31T04:31:42;8.80;99.90
36186;DHT22;22228;53.222;7.446;2023-03-31T04:34:11;8.90;99.90
36186;DHT22;22228;53.222;7.446;2023-03-31T04:36:40;8.90;99.90
36186;DHT22;22228;53.222;7.446;2023-03-31T04:39:12;9.00;99.90
36186;DHT22;22228;53.222;7.446;2023-03-31T04:41:33;9.10;99.90
36186;DHT22;22228;53.222;7.446;2023-03-31T04:43:54;9.10;99.90
36186;DHT22;22228;53.222;7.446;2023-03-31T04:46:39;9.20;99.90
36186;DHT22;22228;53.222;7.446;2023-03-31T04:49:00;9.20;99.90
36186;DHT22;22228;53.222;7.446;2023-03-31T04:51:21;9.30;99.90
36186;DHT22;22228;53.222;7.446;2023-03-31T04:53:45;9.30;99.90
36186;DHT22;22228;53.222;7.446;2023-03-31T04:56:07;9.30;99.90
36186;DHT22;22228;53.222;7.446;2023-03-31T04:58:27;9.30;99.90
36186;DHT22;22228;53.222;7.446;2023-03-31T05:00:48;9.40;99.90
36186;DHT22;22228;53.222;7.446;2023-03-31T05:03:36;9.40;99.90
36186;DHT22;22228;53.222;7.446;2023-03-31T05:05:57;9.40;99.90
36186;DHT22;22228;53.222;7.446;2023-03-31T05:08:44;9.50;99.90
36186;DHT22;22228;53.222;7.446;2023-03-31T05:11:05;9.40;99.90
36186;DHT22;22228;53.222;7.446;2023-03-31T05:13:27;9.40;99.90
36186;DHT22;22228;53.222;7.446;2023-03-31T05:15:48;9.40;99.90
36186;DHT22;22228;53.222;7.446;2023-03-31T05:18:10;9.40;99.90
36186;DHT22;22228;53.222;7.446;2023-03-31T05:20:31;9.50;99.90
36186;DHT22;22228;53.222;7.446;2023-03-31T05:23:16;9.50;99.90
36186;DHT22;22228;53.222;7.446;2023-03-31T05:25:39;9.50;99.90
36186;DHT22;22228;53.222;7.446;2023-03-31T05:28:04;9.60;99.90
36186;DHT22;22228;53.222;7.446;2023-03-31T05:30:26;9.50;99.90
36186;DHT22;22228;53.222;7.446;2023-03-31T05:32:48;9.50;99.90
36186;DHT22;22228;53.222;7.446;2023-03-31T05:35:34;9.50;99.90
36186;DHT22;22228;53.222;7.446;2023-03-31T05:37:55;9.50;99.90
36186;DHT22;22228;53.222;7.446;2023-03-31T05:40:43;9.40;99.90
36186;DHT22;22228;53.222;7.446;2023-03-31T05:43:04;9.40;99.90
36186;DHT22;22228;53.222;7.446;2023-03-31T05:45:25;9.40;99.90
36186;DHT22;22228;53.222;7.446;2023-03-31T05:47:45;9.40;99.90
36186;DHT22;22228;53.222;7.446;2023-03-31T05:50:07;9.40;99.90
36186;DHT22;22228;53.222;7.446;2023-03-31T05:52:54;9.40;99.90
36186;DHT22;22228;53.222;7.446;2023-03-31T05:55:22;9.40;99.90
36186;DHT22;22228;53.222;7.446;2023-03-31T05:57:46;9.40;99.90
36186;DHT22;22228;53.222;7.446;2023-03-31T06:00:11;9.40;99.90
36186;DHT22;22228;53.222;7.446;2023-03-31T06:02:57;9.40;99.90
36186;DHT22;22228;53.222;7.446;2023-03-31T06:05:22;9.40;99.90
36186;DHT22;22228;53.222;7.446;2023-03-31T06:07:50;9.40;99.90
36186;DHT22;22228;53.222;7.446;2023-03-31T06:10:10;9.40;99.90
36186;DHT22;22228;53.222;7.446;2023-03-31T06:12:38;9.40;99.90
36186;DHT22;22228;53.222;7.446;2023-03-31T06:15:01;9.40;99.90
36186;DHT22;22228;53.222;7.446;2023-03-31T06:17:22;9.40;99.90
36186;DHT22;22228;53.222;7.446;2023-03-31T06:19:43;9.40;99.90
36186;DHT22;22228;53.222;7.446;2023-03-31T06:22:05;9.40;99.90
36186;DHT22;22228;53.222;7.446;2023-03-31T06:24:25;9.40;99.90
36186;DHT22;22228;53.222;7.446;2023-03-31T06:26:52;9.50;99.90
36186;DHT22;22228;53.222;7.446;2023-03-31T06:29:13;9.50;99.90
36186;DHT22;22228;53.222;7.446;2023-03-31T06:31:36;9.50;99.90
36186;DHT22;22228;53.222;7.446;2023-03-31T06:34:03;9.50;99.90
36186;DHT22;22228;53.222;7.446;2023-03-31T06:36:25;9.50;99.90
36186;DHT22;22228;53.222;7.446;2023-03-31T06:38:46;9.50;99.90
36186;DHT22;22228;53.222;7.446;2023-03-31T06:41:11;9.50;99.90
36186;DHT22;22228;53.222;7.446;2023-03-31T06:43:36;9.60;99.90
36186;DHT22;22228;53.222;7.446;2023-03-31T06:46:28;9.60;99.90
36186;DHT22;22228;53.222;7.446;2023-03-31T06:48:51;9.70;99.90
36186;DHT22;22228;53.222;7.446;2023-03-31T06:51:42;9.70;99.90
36186;DHT22;22228;53.222;7.446;2023-03-31T06:54:08;9.70;99.90
36186;DHT22;22228;53.222;7.446;2023-03-31T06:56:28;9.80;99.90
36186;DHT22;22228;53.222;7.446;2023-03-31T06:58:51;9.80;99.90
36186;DHT22;22228;53.222;7.446;2023-03-31T07:01:12;9.90;99.90
36186;DHT22;22228;53.222;7.446;2023-03-31T07:03:32;9.90;99.90
36186;DHT22;22228;53.222;7.446;2023-03-31T07:05:56;9.90;99.90
36186;DHT22;22228;53.222;7.446;2023-03-31T07:08:43;10.00;99.90
36186;DHT22;22228;53.222;7.446;2023-03-31T07:11:04;9.90;99.90
36186;DHT22;22228;53.222;7.446;2023-03-31T07:13:56;10.00;99.90
36186;DHT22;22228;53.222;7.446;2023-03-31T07:16:24;10.00;99.90
36186;DHT22;22228;53.222;7.446;2023-03-31T07:18:48;10.00;99.90
36186;DHT22;22228;53.222;7.446;2023-03-31T07:21:36;10.00;99.90
36186;DHT22;22228;53.222;7.446;2023-03-31T07:23:57;10.00;99.90
36186;DHT22;22228;53.222;7.446;2023-03-31T07:26:18;10.00;99.90
36186;DHT22;22228;53.222;7.446;2023-03-31T07:28:39;10.00;99.90
36186;DHT22;22228;53.222;7.446;2023-03-31T07:31:25;10.00;99.90
36186;DHT22;22228;53.222;7.446;2023-03-31T07:34:32;10.00;99.90
36186;DHT22;22228;53.222;7.446;2023-03-31T07:37:02;10.00;99.90
36186;DHT22;22228;53.222;7.446;2023-03-31T07:39:24;10.00;99.90
36186;DHT22;22228;53.222;7.446;2023-03-31T07:41:44;10.10;99.90
36186;DHT22;22228;53.222;7.446;2023-03-31T07:44:32;10.10;99.90
36186;DHT22;22228;53.222;7.446;2023-03-31T07:46:53;10.20;99.90
36186;DHT22;22228;53.222;7.446;2023-03-31T07:49:29;10.20;99.90
36186;DHT22;22228;53.222;7.446;2023-03-31T07:51:50;10.20;99.90
36186;DHT22;22228;53.222;7.446;2023-03-31T07:54:16;10.20;99.90
36186;DHT22;22228;53.222;7.446;2023-03-31T07:56:43;10.30;99.90
36186;DHT22;22228;53.222;7.446;2023-03-31T07:59:04;10.30;99.90
36186;DHT22;22228;53.222;7.446;2023-03-31T08:01:48;10.20;99.90
36186;DHT22;22228;53.222;7.446;2023-03-31T08:04:10;10.20;99.90
36186;DHT22;22228;53.222;7.446;2023-03-31T08:06:38;10.20;99.90
36186;DHT22;22228;53.222;7.446;2023-03-31T08:08:59;10.20;99.90
36186;DHT22;22228;53.222;7.446;2023-03-31T08:11:21;10.20;99.90
36186;DHT22;22228;53.222;7.446;2023-03-31T08:13:43;10.20;99.90
36186;DHT22;22228;53.222;7.446;2023-03-31T08:16:04;10.20;99.90
36186;DHT22;22228;53.222;7.446;2023-03-31T08:18:54;10.20;99.90
36186;DHT22;22228;53.222;7.446;2023-03-31T08:21:21;10.20;99.90
36186;DHT22;22228;53.222;7.446;2023-03-31T08:23:47;10.20;99.90
36186;DHT22;22228;53.222;7.446;2023-03-31T08:26:09;10.20;99.90
36186;DHT22;22228;53.222;7.446;2023-03-31T08:28:32;10.20;99.90
36186;DHT22;22228;53.222;7.446;2023-03-31T08:31:02;10.20;99.90
36186;DHT22;22228;53.222;7.446;2023-03-31T08:33:25;10.20;99.90
36186;DHT22;22228;53.222;7.446;2023-03-31T08:35:51;10.20;99.90
36186;DHT22;22228;53.222;7.446;2023-03-31T08:38:11;10.30;99.90
36186;DHT22;22228;53.222;7.446;2023-03-31T08:40:32;10.30;99.90
36186;DHT22;22228;53.222;7.446;2023-03-31T08:43:25;10.30;99.90
36186;DHT22;22228;53.222;7.446;2023-03-31T08:45:48;10.30;99.90
36186;DHT22;22228;53.222;7.446;2023-03-31T08:48:36;10.30;99.90
36186;DHT22;22228;53.222;7.446;2023-03-31T08:51:34;10.30;99.90
36186;DHT22;22228;53.222;7.446;2023-03-31T08:54:30;10.30;99.90
36186;DHT22;22228;53.222;7.446;2023-03-31T08:57:18;10.20;99.90
36186;DHT22;22228;53.222;7.446;2023-03-31T08:59:47;10.30;99.90
36186;DHT22;22228;53.222;7.446;2023-03-31T09:02:18;10.30;99.90
36186;DHT22;22228;53.222;7.446;2023-03-31T09:05:21;10.30;99.90
36186;DHT22;22228;53.222;7.446;2023-03-31T09:07:50;10.30;99.90
36186;DHT22;22228;53.222;7.446;2023-03-31T09:10:25;10.30;99.90
36186;DHT22;22228;53.222;7.446;2023-03-31T09:12:56;10.40;99.90
36186;DHT22;22228;53.222;7.446;2023-03-31T09:15:25;10.40;99.90
36186;DHT22;22228;53.222;7.446;2023-03-31T09:17:54;10.50;99.90
36186;DHT22;22228;53.222;7.446;2023-03-31T09:20:22;10.50;99.90
36186;DHT22;22228;53.222;7.446;2023-03-31T09:23:16;10.50;99.90
36186;DHT22;22228;53.222;7.446;2023-03-31T09:25:46;10.60;99.90
36186;DHT22;22228;53.222;7.446;2023-03-31T09:28:57;10.60;99.90
36186;DHT22;22228;53.222;7.446;2023-03-31T09:31:19;10.70;99.90
36186;DHT22;22228;53.222;7.446;2023-03-31T09:33:52;10.70;99.90
36186;DHT22;22228;53.222;7.446;2023-03-31T09:36:16;10.80;99.90
36186;DHT22;22228;53.222;7.446;2023-03-31T09:38:42;10.80;99.90
36186;DHT22;22228;53.222;7.446;2023-03-31T09:41:03;10.90;99.90
36186;DHT22;22228;53.222;7.446;2023-03-31T09:43:26;11.00;99.90
36186;DHT22;22228;53.222;7.446;2023-03-31T09:45:48;11.00;99.90
36186;DHT22;22228;53.222;7.446;2023-03-31T09:48:12;11.00;99.90
36186;DHT22;22228;53.222;7.446;2023-03-31T09:50:44;11.10;99.90
36186;DHT22;22228;53.222;7.446;2023-03-31T09:53:14;11.20;99.90
36186;DHT22;22228;53.222;7.446;2023-03-31T09:55:43;11.30;99.90
36186;DHT22;22228;53.222;7.446;2023-03-31T09:58:28;11.30;99.90
36186;DHT22;22228;53.222;7.446;2023-03-31T10:00:58;11.40;99.90
36186;DHT22;22228;53.222;7.446;2023-03-31T10:03:21;11.50;99.90
36186;DHT22;22228;53.222;7.446;2023-03-31T10:05:50;11.60;99.90
36186;DHT22;22228;53.222;7.446;2023-03-31T10:08:39;11.50;99.90
36186;DHT22;22228;53.222;7.446;2023-03-31T10:11:08;11.60;99.90
36186;DHT22;22228;53.222;7.446;2023-03-31T10:13:37;11.60;99.90
36186;DHT22;22228;53.222;7.446;2023-03-31T10:16:06;11.60;99.90
36186;DHT22;22228;53.222;7.446;2023-03-31T10:19:11;11.70;99.90
36186;DHT22;22228;53.222;7.446;2023-03-31T10:21:36;11.70;99.90
36186;DHT22;22228;53.222;7.446;2023-03-31T10:23:59;11.60;99.90
36186;DHT22;22228;53.222;7.446;2023-03-31T10:26:22;11.50;99.90
36186;DHT22;22228;53.222;7.446;2023-03-31T10:28:47;11.40;99.90
36186;DHT22;22228;53.222;7.446;2023-03-31T10:31:10;11.40;99.90
36186;DHT22;22228;53.222;7.446;2023-03-31T10:33:32;11.20;99.90
36186;DHT22;22228;53.222;7.446;2023-03-31T10:35:57;11.30;99.90
36186;DHT22;22228;53.222;7.446;2023-03-31T10:38:24;11.20;99.90
36186;DHT22;22228;53.222;7.446;2023-03-31T10:40:49;11.10;99.90
36186;DHT22;22228;53.222;7.446;2023-03-31T10:43:15;11.10;99.90
36186;DHT22;22228;53.222;7.446;2023-03-31T10:45:40;11.10;99.90
36186;DHT22;22228;53.222;7.446;2023-03-31T10:48:03;11.10;99.90
36186;DHT22;22228;53.222;7.446;2023-03-31T10:50:29;11.10;99.90
36186;DHT22;22228;53.222;7.446;2023-03-31T10:52:51;11.10;99.90
36186;DHT22;22228;53.222;7.446;2023-03-31T10:55:21;11.10;99.90
36186;DHT22;22228;53.222;7.446;2023-03-31T10:57:46;11.20;99.90
36186;DHT22;22228;53.222;7.446;2023-03-31T11:00:14;11.20;99.90
36186;DHT22;22228;53.222;7.446;2023-03-31T11:02:54;11.20;99.90
36186;DHT22;22228;53.222;7.446;2023-03-31T11:05:46;11.10;99.90
36186;DHT22;22228;53.222;7.446;2023-03-31T11:08:45;11.00;99.90
36186;DHT22;22228;53.222;7.446;2023-03-31T11:11:25;10.90;99.90
36186;DHT22;22228;53.222;7.446;2023-03-31T11:17:13;11.10;99.90
36186;DHT22;22228;53.222;7.446;2023-03-31T11:19:43;11.00;99.90
36186;DHT22;22228;53.222;7.446;2023-03-31T11:22:11;11.00;99.90
36186;DHT22;22228;53.222;7.446;2023-03-31T11:25:12;11.00;99.90
36186;DHT22;22228;53.222;7.446;2023-03-31T11:27:54;11.10;99.90
36186;DHT22;22228;53.222;7.446;2023-03-31T11:30:21;11.10;99.90
36186;DHT22;22228;53.222;7.446;2023-03-31T11:32:59;11.10;99.90
36186;DHT22;22228;53.222;7.446;2023-03-31T11:35:53;11.10;99.90
36186;DHT22;22228;53.222;7.446;2023-03-31T11:38:41;11.10;99.90
36186;DHT22;22228;53.222;7.446;2023-03-31T11:41:07;11.20;99.90
36186;DHT22;22228;53.222;7.446;2023-03-31T11:43:36;11.10;99.90
36186;DHT22;22228;53.222;7.446;2023-03-31T11:46:03;11.20;99.90
36186;DHT22;22228;53.222;7.446;2023-03-31T11:48:59;11.20;99.90
36186;DHT22;22228;53.222;7.446;2023-03-31T11:51:26;11.30;99.90
36186;DHT22;22228;53.222;7.446;2023-03-31T11:53:49;11.30;99.90
36186;DHT22;22228;53.222;7.446;2023-03-31T11:56:11;11.40;99.90
36186;DHT22;22228;53.222;7.446;2023-03-31T11:58:38;11.50;99.90
36186;DHT22;22228;53.222;7.446;2023-03-31T12:01:08;11.50;99.90
36186;DHT22;22228;53.222;7.446;2023-03-31T12:03:37;11.60;99.90
36186;DHT22;22228;53.222;7.446;2023-03-31T12:06:09;11.70;99.90
36186;DHT22;22228;53.222;7.446;2023-03-31T12:09:04;11.70;99.90
36186;DHT22;22228;53.222;7.446;2023-03-31T12:11:32;11.80;99.90
36186;DHT22;22228;53.222;7.446;2023-03-31T12:14:07;11.80;99.90
36186;DHT22;22228;53.222;7.446;2023-03-31T12:16:40;11.80;99.90
36186;DHT22;22228;53.222;7.446;2023-03-31T12:19:07;12.10;99.90
36186;DHT22;22228;53.222;7.446;2023-03-31T12:22:02;12.20;99.90
36186;DHT22;22228;53.222;7.446;2023-03-31T12:24:25;12.50;99.90
36186;DHT22;22228;53.222;7.446;2023-03-31T12:26:55;12.60;99.90
36186;DHT22;22228;53.222;7.446;2023-03-31T12:29:49;12.80;99.90
36186;DHT22;22228;53.222;7.446;2023-03-31T12:32:19;12.80;99.90
36186;DHT22;22228;53.222;7.446;2023-03-31T12:34:45;12.70;99.90
36186;DHT22;22228;53.222;7.446;2023-03-31T12:37:56;12.40;99.90
36186;DHT22;22228;53.222;7.446;2023-03-31T12:40:33;12.20;99.90
36186;DHT22;22228;53.222;7.446;2023-03-31T12:46:41;12.30;99.90
36186;DHT22;22228;53.222;7.446;2023-03-31T12:49:21;12.30;99.90
36186;DHT22;22228;53.222;7.446;2023-03-31T12:52:11;12.20;99.90
36186;DHT22;22228;53.222;7.446;2023-03-31T12:57:28;12.60;99.90
36186;DHT22;22228;53.222;7.446;2023-03-31T13:00:17;12.70;99.90
36186;DHT22;22228;53.222;7.446;2023-03-31T13:03:37;12.60;99.90
36186;DHT22;22228;53.222;7.446;2023-03-31T13:06:58;12.60;99.90
36186;DHT22;22228;53.222;7.446;2023-03-31T13:09:39;12.70;99.90
36186;DHT22;22228;53.222;7.446;2023-03-31T13:12:08;12.80;99.90
36186;DHT22;22228;53.222;7.446;2023-03-31T13:14:34;12.80;99.90
36186;DHT22;22228;53.222;7.446;2023-03-31T13:17:29;12.70;99.90
36186;DHT22;22228;53.222;7.446;2023-03-31T13:19:56;12.80;99.90
36186;DHT22;22228;53.222;7.446;2023-03-31T13:23:00;13.10;99.90
36186;DHT22;22228;53.222;7.446;2023-03-31T13:25:49;13.40;99.90
36186;DHT22;22228;53.222;7.446;2023-03-31T13:31:16;13.50;99.90
36186;DHT22;22228;53.222;7.446;2023-03-31T13:33:43;13.60;99.90
36186;DHT22;22228;53.222;7.446;2023-03-31T13:36:29;13.50;99.90
36186;DHT22;22228;53.222;7.446;2023-03-31T13:39:14;13.50;99.90
36186;DHT22;22228;53.222;7.446;2023-03-31T13:41:50;13.40;99.90
36186;DHT22;22228;53.222;7.446;2023-03-31T13:44:48;13.40;99.90
36186;DHT22;22228;53.222;7.446;2023-03-31T13:47:45;13.50;99.90
36186;DHT22;22228;53.222;7.446;2023-03-31T13:53:27;13.40;99.90
36186;DHT22;22228;53.222;7.446;2023-03-31T13:59:28;13.30;99.90
36186;DHT22;22228;53.222;7.446;2023-03-31T14:02:26;13.50;99.90
36186;DHT22;22228;53.222;7.446;2023-03-31T14:05:08;13.70;99.90
36186;DHT22;22228;53.222;7.446;2023-03-31T14:07:37;13.90;99.90
36186;DHT22;22228;53.222;7.446;2023-03-31T14:10:04;13.90;99.90
36186;DHT22;22228;53.222;7.446;2023-03-31T14:12:51;13.80;99.90
36186;DHT22;22228;53.222;7.446;2023-03-31T14:15:18;13.70;99.90
36186;DHT22;22228;53.222;7.446;2023-03-31T14:18:10;13.60;99.90
36186;DHT22;22228;53.222;7.446;2023-03-31T14:20:39;13.40;99.90
36186;DHT22;22228;53.222;7.446;2023-03-31T14:23:39;13.40;99.90
36186;DHT22;22228;53.222;7.446;2023-03-31T14:26:52;13.40;99.90
36186;DHT22;22228;53.222;7.446;2023-03-31T14:29:18;13.40;99.90
36186;DHT22;22228;53.222;7.446;2023-03-31T14:31:48;13.40;99.90
36186;DHT22;22228;53.222;7.446;2023-03-31T14:34:38;13.40;99.90
36186;DHT22;22228;53.222;7.446;2023-03-31T14:37:10;13.30;99.90
36186;DHT22;22228;53.222;7.446;2023-03-31T14:39:41;13.20;99.90
36186;DHT22;22228;53.222;7.446;2023-03-31T14:42:09;13.20;99.90
36186;DHT22;22228;53.222;7.446;2023-03-31T14:44:33;13.20;99.90
36186;DHT22;22228;53.222;7.446;2023-03-31T14:46:55;13.20;99.90
36186;DHT22;22228;53.222;7.446;2023-03-31T14:49:25;13.20;99.90
36186;DHT22;22228;53.222;7.446;2023-03-31T14:52:15;13.20;99.90
36186;DHT22;22228;53.222;7.446;2023-03-31T14:54:39;13.20;99.90
36186;DHT22;22228;53.222;7.446;2023-03-31T14:57:16;13.20;99.90
36186;DHT22;22228;53.222;7.446;2023-03-31T15:00:15;13.20;99.90
36186;DHT22;22228;53.222;7.446;2023-03-31T15:03:07;13.30;99.90
36186;DHT22;22228;53.222;7.446;2023-03-31T15:08:47;13.80;99.90
36186;DHT22;22228;53.222;7.446;2023-03-31T15:11:12;14.00;99.90
36186;DHT22;22228;53.222;7.446;2023-03-31T15:13:37;14.10;99.90
36186;DHT22;22228;53.222;7.446;2023-03-31T15:16:20;14.20;99.90
36186;DHT22;22228;53.222;7.446;2023-03-31T15:18:42;14.20;99.90
36186;DHT22;22228;53.222;7.446;2023-03-31T15:21:04;14.20;99.90
36186;DHT22;22228;53.222;7.446;2023-03-31T15:23:29;14.20;99.90
36186;DHT22;22228;53.222;7.446;2023-03-31T15:25:55;14.00;99.90
36186;DHT22;22228;53.222;7.446;2023-03-31T15:28:20;13.80;99.90
36186;DHT22;22228;53.222;7.446;2023-03-31T15:30:43;13.50;99.90
36186;DHT22;22228;53.222;7.446;2023-03-31T15:33:06;13.20;99.90
36186;DHT22;22228;53.222;7.446;2023-03-31T15:35:35;12.80;99.90
36186;DHT22;22228;53.222;7.446;2023-03-31T15:38:30;12.60;99.90
36186;DHT22;22228;53.222;7.446;2023-03-31T15:41:17;12.40;99.90
36186;DHT22;22228;53.222;7.446;2023-03-31T15:43:45;11.80;99.90
36186;DHT22;22228;53.222;7.446;2023-03-31T15:46:09;11.30;99.90
36186;DHT22;22228;53.222;7.446;2023-03-31T15:48:33;10.90;99.90
36186;DHT22;22228;53.222;7.446;2023-03-31T15:51:05;10.70;99.90
36186;DHT22;22228;53.222;7.446;2023-03-31T15:53:31;10.50;99.90
36186;DHT22;22228;53.222;7.446;2023-03-31T15:55:58;10.50;99.90
36186;DHT22;22228;53.222;7.446;2023-03-31T15:58:23;10.40;99.90
36186;DHT22;22228;53.222;7.446;2023-03-31T16:00:50;10.40;99.90
36186;DHT22;22228;53.222;7.446;2023-03-31T16:03:17;10.40;99.90
36186;DHT22;22228;53.222;7.446;2023-03-31T16:05:50;10.40;99.90
36186;DHT22;22228;53.222;7.446;2023-03-31T16:08:15;10.30;99.90
36186;DHT22;22228;53.222;7.446;2023-03-31T16:10:37;10.30;99.90
36186;DHT22;22228;53.222;7.446;2023-03-31T16:13:01;10.40;99.90
36186;DHT22;22228;53.222;7.446;2023-03-31T16:15:32;10.40;99.90
36186;DHT22;22228;53.222;7.446;2023-03-31T16:21:08;10.40;99.90
36186;DHT22;22228;53.222;7.446;2023-03-31T16:23:32;10.50;99.90
36186;DHT22;22228;53.222;7.446;2023-03-31T16:25:56;10.50;99.90
36186;DHT22;22228;53.222;7.446;2023-03-31T16:28:22;10.50;99.90
36186;DHT22;22228;53.222;7.446;2023-03-31T16:30:51;10.50;99.90
36186;DHT22;22228;53.222;7.446;2023-03-31T16:33:14;10.50;99.90
36186;DHT22;22228;53.222;7.446;2023-03-31T16:35:37;10.60;99.90
36186;DHT22;22228;53.222;7.446;2023-03-31T16:38:00;10.70;99.90
36186;DHT22;22228;53.222;7.446;2023-03-31T16:40:20;10.70;99.90
36186;DHT22;22228;53.222;7.446;2023-03-31T16:43:15;10.70;99.90
36186;DHT22;22228;53.222;7.446;2023-03-31T16:45:44;10.70;99.90
36186;DHT22;22228;53.222;7.446;2023-03-31T16:48:05;10.70;99.90
36186;DHT22;22228;53.222;7.446;2023-03-31T16:50:27;10.70;99.90
36186;DHT22;22228;53.222;7.446;2023-03-31T16:52:49;10.70;99.90
36186;DHT22;22228;53.222;7.446;2023-03-31T16:55:11;10.70;99.90
36186;DHT22;22228;53.222;7.446;2023-03-31T16:57:31;10.70;99.90
36186;DHT22;22228;53.222;7.446;2023-03-31T16:59:51;10.70;99.90
36186;DHT22;22228;53.222;7.446;2023-03-31T17:02:12;10.70;99.90
36186;DHT22;22228;53.222;7.446;2023-03-31T17:04:32;10.60;99.90
36186;DHT22;22228;53.222;7.446;2023-03-31T17:06:53;10.60;99.90
36186;DHT22;22228;53.222;7.446;2023-03-31T17:09:13;10.50;99.90
36186;DHT22;22228;53.222;7.446;2023-03-31T17:11:36;10.40;99.90
36186;DHT22;22228;53.222;7.446;2023-03-31T17:13:56;10.40;99.90
36186;DHT22;22228;53.222;7.446;2023-03-31T17:16:18;10.40;99.90
36186;DHT22;22228;53.222;7.446;2023-03-31T17:18:38;10.30;99.90
36186;DHT22;22228;53.222;7.446;2023-03-31T17:21:03;10.30;99.90
36186;DHT22;22228;53.222;7.446;2023-03-31T17:23:24;10.20;99.90
36186;DHT22;22228;53.222;7.446;2023-03-31T17:25:46;10.20;99.90
36186;DHT22;22228;53.222;7.446;2023-03-31T17:28:08;10.20;99.90
36186;DHT22;22228;53.222;7.446;2023-03-31T17:30:29;10.20;99.90
36186;DHT22;22228;53.222;7.446;2023-03-31T17:32:49;10.10;99.90
36186;DHT22;22228;53.222;7.446;2023-03-31T17:35:11;10.10;99.90
36186;DHT22;22228;53.222;7.446;2023-03-31T17:37:38;10.10;99.90
36186;DHT22;22228;53.222;7.446;2023-03-31T17:39:59;10.10;99.90
36186;DHT22;22228;53.222;7.446;2023-03-31T17:42:20;10.10;99.90
36186;DHT22;22228;53.222;7.446;2023-03-31T17:44:42;10.10;99.90
36186;DHT22;22228;53.222;7.446;2023-03-31T17:47:04;10.10;99.90
36186;DHT22;22228;53.222;7.446;2023-03-31T17:49:25;10.10;99.90
36186;DHT22;22228;53.222;7.446;2023-03-31T17:51:45;10.00;99.90
36186;DHT22;22228;53.222;7.446;2023-03-31T17:54:06;10.00;99.90
36186;DHT22;22228;53.222;7.446;2023-03-31T17:56:26;9.90;99.90
36186;DHT22;22228;53.222;7.446;2023-03-31T17:58:47;9.90;99.90
36186;DHT22;22228;53.222;7.446;2023-03-31T18:01:09;9.90;99.90
36186;DHT22;22228;53.222;7.446;2023-03-31T18:03:30;9.80;99.90
36186;DHT22;22228;53.222;7.446;2023-03-31T18:05:51;9.80;99.90
36186;DHT22;22228;53.222;7.446;2023-03-31T18:08:12;9.80;99.90
36186;DHT22;22228;53.222;7.446;2023-03-31T18:10:32;9.80;99.90
36186;DHT22;22228;53.222;7.446;2023-03-31T18:12:53;9.80;99.90
36186;DHT22;22228;53.222;7.446;2023-03-31T18:15:14;9.80;99.90
36186;DHT22;22228;53.222;7.446;2023-03-31T18:17:35;9.70;99.90
36186;DHT22;22228;53.222;7.446;2023-03-31T18:19:56;9.80;99.90
36186;DHT22;22228;53.222;7.446;2023-03-31T18:22:17;9.70;99.90
36186;DHT22;22228;53.222;7.446;2023-03-31T18:24:38;9.80;99.90
36186;DHT22;22228;53.222;7.446;2023-03-31T18:26:59;9.70;99.90
36186;DHT22;22228;53.222;7.446;2023-03-31T18:29:19;9.70;99.90
36186;DHT22;22228;53.222;7.446;2023-03-31T18:31:40;9.70;99.90
36186;DHT22;22228;53.222;7.446;2023-03-31T18:34:01;9.70;99.90
36186;DHT22;22228;53.222;7.446;2023-03-31T18:36:22;9.70;99.90
36186;DHT22;22228;53.222;7.446;2023-03-31T18:38:44;9.80;99.90
36186;DHT22;22228;53.222;7.446;2023-03-31T18:41:04;9.80;99.90
36186;DHT22;22228;53.222;7.446;2023-03-31T18:43:25;9.80;99.90
36186;DHT22;22228;53.222;7.446;2023-03-31T18:45:46;9.80;99.90
36186;DHT22;22228;53.222;7.446;2023-03-31T18:48:07;9.80;99.90
36186;DHT22;22228;53.222;7.446;2023-03-31T18:50:29;9.80;99.90
36186;DHT22;22228;53.222;7.446;2023-03-31T18:52:49;9.80;99.90
36186;DHT22;22228;53.222;7.446;2023-03-31T18:55:11;9.80;99.90
36186;DHT22;22228;53.222;7.446;2023-03-31T18:57:31;9.80;99.90
36186;DHT22;22228;53.222;7.446;2023-03-31T18:59:52;9.80;99.90
36186;DHT22;22228;53.222;7.446;2023-03-31T19:02:13;9.80;99.90
36186;DHT22;22228;53.222;7.446;2023-03-31T19:04:34;9.90;99.90
36186;DHT22;22228;53.222;7.446;2023-03-31T19:06:56;9.90;99.90